Terminal Aerodrome Forecast
Issued by NWS Grand Rapids, MI

Home | Current Version | Previous Version | Text Only | Print | Product List | Glossary On
Versions: 1 2 3 4 5 6 7 8 9 10 11 12 13 14
157
FTUS43 KGRR 141140
TAFGRR
TAF
KGRR 141140Z 1412/1512 13005KT P6SM SCT250
     FM141800 13012KT P6SM BKN120
     FM150200 13010KT 4SM -SN OVC025
     FM150600 13010KT 2SM -SN OVC015=

USA.gov is the U.S. government's official web portal to all federal, state and local government web resources and services.